MDT,Max TemperatureF,Mean TemperatureF,Min TemperatureF,Max Dew PointF,MeanDew PointF,Min DewpointF,Max Humidity, Mean Humidity, Min Humidity, Max Sea Level PressureIn, Mean Sea Level PressureIn, Min Sea Level PressureIn, Max VisibilityMiles, Mean VisibilityMiles, Min VisibilityMiles, Max Wind SpeedMPH, Mean Wind SpeedMPH, Max Gust SpeedMPH,PrecipitationIn, CloudCover, Events, WindDirDegrees
2012-6-1,91,68,44,34,29,25,53,31,9,29.89,29.82,29.72,10,10,10,18,7,26,0.00,0,,318
2012-6-2,90,68,46,35,29,19,58,33,8,30.05,29.79,29.70,10,10,10,22,7,39,0.00,0,,16
2012-6-3,94,69,44,35,27,19,58,33,7,29.88,29.83,29.80,10,10,10,17,4,22,0.00,0,,127
2012-6-4,93,71,49,39,31,21,56,32,8,30.08,29.82,29.71,10,10,10,35,11,45,0.00,0,,142
2012-6-5,90,74,57,38,27,14,42,24,6,29.81,29.70,29.59,10,10,10,26,11,33,0.00,0,,187
2012-6-6,86,67,47,31,23,15,42,25,7,29.82,29.74,29.67,10,10,10,20,8,24,0.00,0,,199
2012-6-7,87,68,49,28,21,14,39,23,7,29.88,29.82,29.75,10,10,10,18,7,22,0.00,0,,155
2012-6-8,91,66,40,30,21,14,53,30,6,29.88,29.79,29.67,10,10,10,24,9,30,0.00,0,,190
2012-6-9,89,70,51,28,20,16,30,19,7,29.74,29.64,29.53,10,10,10,24,12,31,0.00,0,,198
2012-6-10,79,61,43,23,13,2,25,16,6,29.96,29.81,29.58,10,10,10,23,9,29,0.00,0,,296
2012-6-11,84,59,34,23,12,1,44,25,6,30.04,30.00,29.94,10,10,10,18,6,25,0.00,0,,40
2012-6-12,89,64,38,27,18,7,49,27,5,30.06,29.95,29.85,10,10,10,18,6,26,0.00,0,,24
2012-6-13,93,66,38,26,15,3,48,26,4,29.89,29.79,29.66,10,10,10,17,7,32,0.00,0,,105
2012-6-14,91,66,41,27,19,8,43,24,4,29.81,29.76,29.70,10,10,10,20,6,24,0.00,0,,134
2012-6-15,90,66,42,30,20,10,45,25,5,30.07,29.80,29.74,10,10,10,26,8,35,0.00,0,,197
2012-6-16,92,69,46,31,24,10,49,27,5,29.96,29.89,29.80,10,10,10,17,6,25,0.00,0,,45
2012-6-17,93,68,42,32,22,13,53,29,5,30.00,29.88,29.73,10,10,10,26,9,36,0.00,0,,299
2012-6-18,92,70,48,28,20,12,38,22,5,30.00,29.74,29.62,10,10,10,23,9,33,0.00,0,,329
2012-6-19,93,69,45,29,19,11,45,25,5,29.87,29.68,29.60,10,10,10,21,7,30,0.00,0,,266
2012-6-20,90,67,44,29,19,7,49,27,5,29.92,29.79,29.66,10,10,10,21,8,29,0.00,0,,8
2012-6-21,97,69,40,39,22,14,43,24,5,29.97,29.88,29.75,10,10,10,15,6,20,0.00,0,,152
2012-6-22,97,76,54,38,29,19,47,27,6,29.86,29.75,29.62,10,10,10,32,10,40,0.00,0,,225
2012-6-23,98,74,50,37,28,15,45,26,7,30.06,29.81,29.70,10,8,2,21,9,28,0.00,1,,190
2012-6-24,99,78,56,43,34,22,57,32,7,30.14,29.87,29.78,10,8,3,18,5,29,0.00,0,,196
2012-6-25,97,76,54,42,34,27,47,28,8,29.93,29.84,29.75,10,10,8,22,7,29,0.00,0,,203
2012-6-26,94,76,58,57,44,38,53,34,14,30.11,29.85,29.69,10,10,6,38,7,47,0.05,3,Rain-Thunderstorm,177
2012-6-27,93,77,60,57,49,38,78,47,16,30.16,29.91,29.83,10,10,6,33,6,46,0.02,2,Rain-Thunderstorm,133
2012-6-28,96,75,54,52,44,37,69,42,15,30.17,29.99,29.88,10,10,8,29,6,38,T,1,,194
2012-6-29,96,74,52,44,36,26,66,38,9,30.03,29.92,29.79,10,10,10,18,6,26,0.00,0,,4
2012-6-30,96,74,51,45,32,21,55,31,7,30.02,29.83,29.72,10,10,5,18,5,25,0.00,0,,62